Overton, Nevada Weather observations

Data are for observation ending at time listed.
 Day   Time    Ave.   Ave.  Ave.  Vector   Max.   Stn.    Total    Solar   Ave.  
  of    of     Air    Rel.  Wind   Wind    Wind   Baro.  Precip.   Rad.    Soil  
Year   Day     Temp.  Hum.  Speed  Dir.    Gust   Pres.                    Temp. 
2026   (PST)    F      %     mph   deg.    mph     mb.     in.     W/m2     F   
------------------------------------------------------------------------------
 245   18:50   92.8     6    2.0   213      3.5   962.7    0.00       0    95.0
 245   19:00   92.6     5    5.4   191     13.8   962.7    0.00       0    94.9
 245   19:10   93.1     5    4.1   177     11.5   962.7    0.00       0    94.6
 245   19:20   92.1     5    4.0   160      8.6   962.8    0.00       0    94.1
 245   19:30   91.8     5    5.7   180     12.6   962.8    0.00       0    93.8
 245   19:40   92.3     5    8.0   184     14.3   962.8    0.00       0    93.8
 245   19:50   92.3     6    7.3   186     11.8   963.0    0.00       0    93.5
 245   20:00   92.0     6    6.7   182     11.5   963.1    0.00       0    93.1
 245   20:10   91.9     6    6.1   186     10.1   963.2    0.00       0    92.9
 245   20:20   91.5     6    5.0   175      9.5   963.4    0.00       0    92.4
 245   20:30   89.6     7    3.0   124      6.9   963.5    0.00       0    91.5
 245   20:40   88.1     8    2.9   147      6.6   963.5    0.00       0    91.1
 245   20:50   87.7     9    2.7   137      6.7   963.3    0.00       0    90.8
 245   21:00   87.0    10    3.0   162      5.3   963.3    0.00       0    90.4
 245   21:10   86.4    11    2.8   164      5.8   963.3    0.00       0    90.1
 245   21:20   86.2    11    2.5   168      5.2   963.1    0.00       0    89.7
 245   21:30   85.3    10    2.4   110      5.0   963.1    0.00       0    89.1
 245   21:40   84.8    10    2.5   144      6.1   962.9    0.00       0    88.9
 245   21:50   84.0    11    3.9   187      6.0   962.9    0.00       0    88.6
 245   22:00   83.8    11    3.1   156      5.6   962.9    0.00       0    88.3
 245   22:10   84.0    12    3.0   159      5.2   962.9    0.00       0    88.0
 245   22:20   83.4    13    2.0   137      5.1   962.9    0.00       0    87.3
 245   22:30   77.5    18    3.0    31      5.1   962.9    0.00       0    85.5
 245   22:40   76.8    19    0.1    29      1.2   962.8    0.00       0    85.5
 245   22:50   76.6    16    1.0   274      3.7   962.6    0.00       0    85.2
 245   23:00   75.8    15    1.5   305      4.7   962.6    0.00       0    84.2
 245   23:10   73.4    15    2.8   306      4.5   962.6    0.00       0    83.3
 245   23:20   72.1    17    1.9   328      3.7   962.6    0.00       0    82.4
 245   23:30   69.5    20    3.5   349      4.6   962.6    0.00       0    81.5
 245   23:40   70.0    19    2.9   344      3.9   962.5    0.00       0    81.5
 245   23:50   71.2    17    1.9   299      3.4   962.5    0.00       0    81.6
 246    0:00   71.7    16    2.3   308      4.4   962.5    0.00       0    81.2
 246    0:10   71.0    17    0.7   320      1.8   962.5    0.00       0    81.1
 246    0:20   71.9    16    2.3   262      5.2   962.5    0.00       0    81.3
 246    0:30   71.2    17    1.9   320      3.4   962.5    0.00       0    80.0
 246    0:40   67.7    22    2.8     0      3.5   962.5    0.00       0    79.1
 246    0:50   67.9    21    1.7   336      4.4   962.5    0.00       0    79.7
 246    1:00   69.8    19    2.6   269      4.4   962.4    0.00       0    80.0
 246    1:10   69.5    19    1.5   307      3.3   962.4    0.00       0    78.9
 246    1:20   67.1    22    3.0   343      4.2   962.3    0.00       0    77.9
 246    1:30   66.1    23    2.4   348      3.8   962.4    0.00       0    78.0
 246    1:40   68.1    21    1.8   286      4.0   962.4    0.00       0    78.4
 246    1:50   69.0    19    0.9   273      3.4   962.4    0.00       0    78.2
 246    2:00   67.1    21    1.9   321      2.9   962.4    0.00       0    77.2
 246    2:10   64.7    25    3.1   336      5.1   962.4    0.00       0    76.2
 246    2:20   63.8    26    3.1   343      3.7   962.4    0.00       0    75.8
 246    2:30   65.1    24    2.7   326      3.6   962.4    0.00       0    76.2
 246    2:40   66.8    22    3.2   298      4.7   962.4    0.00       0    76.6
 246    2:50   66.7    22    3.0   296      4.7   962.3    0.00       0    76.2
 246    3:00   66.8    22    1.8   286      3.9   962.2    0.00       0    76.3
 246    3:10   66.3    23    2.3   346      3.8   962.3    0.00       0    75.7
 246    3:20   65.6    24    2.4   306      3.9   962.4    0.00       0    75.6
 246    3:30   66.2    22    1.2   271      2.3   962.4    0.00       0    75.9
 246    3:40   64.0    26    2.4   329      3.0   962.5    0.00       0    74.5
 246    3:50   63.8    26    2.5   314      3.4   962.5    0.00       0    74.7
 246    4:00   66.1    23    1.2   287      2.3   962.4    0.00       0    75.4
 246    4:10   65.2    24    1.4   287      2.6   962.4    0.00       0    74.5
 246    4:20   65.0    24    1.7   305      3.1   962.4    0.00       0    74.3
 246    4:30   62.7    28    1.3   335      2.0   962.5    0.00       0    73.8
 246    4:40   62.1    29    1.7   348      2.9   962.4    0.00       0    73.4
 246    4:50   62.2    28    2.1   301      3.7   962.4    0.00       0    73.4
 246    5:00   63.2    26    1.4   284      2.2   962.4    0.00       1    73.6
 246    5:10   62.8    26    1.5   295      2.9   962.4    0.00       2    73.1
 246    5:20   61.4    29    1.9   332      3.4   962.5    0.00       6    72.6
 246    5:30   60.7    30    2.9   333      4.2   962.6    0.00      11    72.4
 246    5:40   61.5    29    1.9   324      3.4   962.6    0.00      51    72.9
 246    5:50   62.6    29    2.8   331      4.1   962.8    0.00      83    75.4
 246    6:00   63.5    28    2.7   323      4.2   963.0    0.00     113    77.3
 246    6:10   66.1    24    1.9   295      3.4   963.2    0.00     144    80.2
 246    6:20   67.4    23    2.3   314      3.3   963.5    0.00     176    81.0
 246    6:30   69.3    21    1.7   298      3.8   963.8    0.00     209    83.6
 246    6:40   71.7    20    1.4   325      2.5   964.2    0.00     244    85.5
 246    6:50   73.6    21    0.9   336      2.4   964.4    0.00     279    87.4
 246    7:00   75.0    18    1.3   318      2.6   964.7    0.00     313    88.9
 246    7:10   75.6    16    2.1   308      3.2   965.0    0.00     348    90.1
 246    7:20   77.6    15    1.8   278      3.4   965.1    0.00     382    93.3
 246    7:30   79.7    14    1.2   213      2.9   965.2    0.00     416    95.7
 246    7:40   80.9    14    1.6   163      3.9   965.4    0.00     451    97.8
 246    7:50   82.0    15    1.9   147      4.2   965.5    0.00     485    98.7
 246    8:00   83.4    15    2.2   141      6.5   965.7    0.00     517    99.9
 246    8:10   83.8    15    3.0   127      5.9   965.8    0.00     548    100.2
 246    8:20   84.2    16    3.3   142      6.4   965.8    0.00     580    101.7
 246    8:30   85.5    15    2.7   128      6.2   965.8    0.00     610    102.8
 246    8:40   87.0    14    2.7   119      7.7   965.8    0.00     637    103.5
 246    8:50   87.9    14    3.4   130      8.6   965.8    0.00     665    103.6
 246    9:00   89.1    12    7.4   167     18.6   965.8    0.00     692    104.3
 246    9:10   89.4    11    8.4   150     17.1   965.9    0.00     717    104.3
 246    9:20   90.2    10    7.8   149     15.6   966.0    0.00     742    105.2
 246    9:30   90.6    10    8.7   143     17.0   966.0    0.00     764    105.4
 246    9:40   91.0    10    9.3   150     17.2   966.0    0.00     785    106.1
 246    9:50   91.7    10    9.1   151     14.9   966.0    0.00     803    107.1
 246   10:00   91.8     9    8.9   152     19.4   966.0    0.00     821    107.2
 246   10:10   92.4     9    9.4   164     18.4   966.0    0.00     837    107.3
 246   10:20   92.8     9   10.0   177     20.2   965.9    0.00     849    107.2
 246   10:30   93.3     9    8.6   153     16.7   965.8    0.00     863    106.6
 246   10:40   93.6     8   10.7   174     19.1   965.6    0.00     872    106.8
 246   10:50   94.3     8   10.8   177     24.3   965.5    0.00     884    107.2
 246   11:00   94.8     8   11.0   180     18.7   965.3    0.00     891    107.7
 246   11:10   95.0     8    8.8   170     18.1   965.2    0.00     895    108.3
 246   11:20   94.8     8   11.3   173     20.0   965.1    0.00     899    108.4
 246   11:30   95.5     8    8.4   161     17.0   964.9    0.00     900    108.7
 246   11:40   96.0     8    8.7   171     20.5   964.8    0.00     900    109.2
 246   11:50   96.1     8    9.8   174     22.5   964.7    0.00     897    109.3
 246   12:00   96.2     8    7.4   161     14.2   964.5    0.00     895    109.6
 246   12:10   96.7     8    7.9   148     16.2   964.3    0.00     889    109.4
 246   12:20   97.3     8    7.5   141     16.6   964.2    0.00     882    109.5
 246   12:30   97.4     8    7.3   151     17.0   964.0    0.00     874    108.5
 246   12:40   97.5     8    7.6   141     16.4   964.0    0.00     862    106.9
 246   12:50   97.4     8    9.5   172     16.1   963.8    0.00     849    106.4
 246   13:00   98.1     8    8.2   164     19.2   963.7    0.00     835    105.7
 246   13:10   98.0     8    8.1   163     15.6   963.7    0.00     820    105.1
 246   13:20   98.2     7    8.2   146     17.0   963.7    0.00     803    104.7
 246   13:30   98.6     7    7.1   156     15.1   963.6    0.00     787    105.3
 246   13:40   98.8     7    8.6   146     18.6   963.5    0.00     767    104.7
 246   13:50   98.5     7    9.2   160     18.1   963.5    0.00     746    105.2
 246   14:00   98.7     7    8.1   148     16.4   963.4    0.00     724    104.7
 246   14:10   98.8     7    7.3   134     20.0   963.2    0.00     699    104.2
 246   14:20   99.4     7    7.2   144     17.1   963.1    0.00     674    104.1
 246   14:30   99.2     7    8.3   142     19.9   963.1    0.00     647    103.8
 246   14:40   99.1     7    8.0   137     18.2   963.0    0.00     620    103.3
 246   14:50   99.3     7    8.3   147     16.9   963.0    0.00     593    103.5
 246   15:00   98.6     7    9.5   158     19.1   962.9    0.00     558    103.5
 246   15:10   98.8     7    8.6   147     18.6   962.7    0.00     527    103.0
 246   15:20   98.5     7    9.1   140     19.5   962.6    0.00     502    102.3
 246   15:30   98.1     7    9.7   150     18.9   962.4    0.00     466    102.2
 246   15:40   98.2     7    8.7   160     19.2   962.2    0.00     438    101.9
 246   15:50   98.4     7    8.0   151     21.7   962.2    0.00     393    101.7
 246   16:00   98.1     7    8.8   147     23.2   962.2    0.00      88    101.2
 246   16:10   97.9     7    8.1   144     17.0   962.1    0.00     167    100.7
 246   16:20   98.0     7    7.6   136     15.4   962.1    0.00     303    100.4
 246   16:30   97.6     7    8.8   145     18.0   962.0    0.00     269    100.0
 246   16:40   97.6     7    7.7   142     19.1   961.9    0.00     236    99.7
 246   16:50   97.1     7    9.4   140     21.0   961.8    0.00     204    99.2
 246   17:00   97.0     7    8.3   146     17.7   961.8    0.00     173    98.9
 246   17:10   96.8     7    8.9   154     18.3   961.7    0.00     104    98.7
 246   17:20   96.5     7    7.7   150     15.3   961.5    0.00     102    98.1
 246   17:30   96.1     7    7.3   149     13.4   961.3    0.00      84    97.5
 246   17:40   95.6     8    6.9   157     14.5   961.3    0.00      51    97.0
 246   17:50   95.1     8    6.5   155     17.6   961.2    0.00      15    96.5
 246   18:00   94.5     8    8.0   158     19.6   961.2    0.00       9    96.0
 246   18:10   94.3     8    8.4   162     17.2   961.0    0.00       4    95.7
 246   18:20   93.8     8    6.3   162     12.8   960.9    0.00       1    95.0
 246   18:30   93.5     8    6.9   158     13.7   960.8    0.00       0    94.6
 246   18:40   93.3     8    4.3   155      9.6   960.8    0.00       0    94.2

Return to Overton, Nevada graphs page.


Western Regional Climate Center,wrcc@dri.edu